Time;durP1;ratioP1;P1;durP2;ratioP2;P2;SDS_P1;SDS_P2;PMS_P1;PMS_P2;Temp;Humidity;BMP_temperature;BMP_pressure;BME280_temperature;BME280_humidity;BME280_pressure;Samples;Min_cycle;Max_cycle;Signal;HPM_P1;HPM_P2
2023/01/17 00:01:14;;;;;;;9.63;5.90;;;19.70;90.50;;;;;;1854395;77;21204;-83
2023/01/17 00:12:11;;;;;;;14.13;8.88;;;19.70;90.60;;;;;;1856157;76;21181;-83
2023/01/17 00:14:42;;;;;;;15.58;10.90;;;19.70;91.10;;;;;;1818980;79;21151;-83
2023/01/17 00:17:13;;;;;;;8.15;6.05;;;19.70;90.60;;;;;;1824512;79;21163;-83
2023/01/17 01:34:03;;;;;;;15.98;9.45;;;20.50;89.90;;;;;;1865896;76;21084;-83
2023/01/17 01:36:34;;;;;;;14.25;8.90;;;20.50;89.90;;;;;;1864907;76;21194;-83
2023/01/17 01:39:07;;;;;;;15.60;9.60;;;20.60;89.40;;;;;;1876870;75;21081;-83
2023/01/17 01:41:38;;;;;;;15.15;9.98;;;20.60;88.50;;;;;;1868900;75;21226;-84
2023/01/17 01:44:28;;;;;;;18.17;10.48;;;20.70;88.50;;;;;;1888845;75;21122;-83
2023/01/17 01:46:59;;;;;;;13.20;8.63;;;20.70;87.90;;;;;;1903604;74;21076;-85
2023/01/17 01:49:30;;;;;;;11.12;8.03;;;20.80;87.90;;;;;;1868522;74;21229;-84
2023/01/17 01:52:03;;;;;;;13.20;7.15;;;20.80;88.60;;;;;;1876366;76;21649;-86
2023/01/17 01:54:39;;;;;;;13.10;6.92;;;20.80;87.40;;;;;;1892360;75;21068;-84
2023/01/17 01:57:13;;;;;;;8.68;6.45;;;20.90;86.90;;;;;;1848991;77;21289;-82
2023/01/17 01:59:48;;;;;;;13.45;6.30;;;20.90;86.60;;;;;;1866007;76;21070;-82
2023/01/17 02:02:20;;;;;;;9.10;5.40;;;20.90;86.60;;;;;;1883321;75;21630;-83
2023/01/17 02:04:52;;;;;;;8.78;5.42;;;21.00;86.40;;;;;;1849492;76;21189;-80
2023/01/17 02:07:26;;;;;;;9.73;5.42;;;21.00;86.30;;;;;;1809329;77;21183;-81
2023/01/17 02:09:58;;;;;;;8.10;5.28;;;21.10;86.20;;;;;;1855725;76;21218;-83
2023/01/17 02:12:29;;;;;;;8.25;5.12;;;21.10;85.80;;;;;;1874821;76;21078;-82
2023/01/17 02:15:01;;;;;;;9.88;4.35;;;21.20;85.60;;;;;;1893099;74;21053;-79
2023/01/17 02:17:37;;;;;;;7.10;4.10;;;21.20;85.50;;;;;;1903587;74;21143;-82
2023/01/17 02:20:28;;;;;;;8.08;5.30;;;21.30;84.80;;;;;;1882056;74;21127;-84
2023/01/17 02:23:19;;;;;;;6.80;3.98;;;21.30;84.60;;;;;;1865116;77;21050;-81
2023/01/17 02:26:09;;;;;;;9.00;4.10;;;21.30;84.50;;;;;;1886545;75;21605;-83
2023/01/17 02:28:45;;;;;;;16.05;11.00;;;21.30;84.50;;;;;;1883149;74;21083;-84
2023/01/17 02:31:19;;;;;;;12.85;4.15;;;21.30;84.20;;;;;;1868959;75;21088;-83
2023/01/17 02:33:55;;;;;;;10.13;4.50;;;21.30;84.20;;;;;;1900888;75;21069;-85
2023/01/17 02:36:31;;;;;;;6.62;4.62;;;21.30;84.30;;;;;;1877232;75;21080;-85
2023/01/17 02:39:08;;;;;;;8.80;4.90;;;21.40;84.20;;;;;;1865622;77;21069;-83
2023/01/17 02:41:43;;;;;;;7.30;4.70;;;21.40;84.40;;;;;;1876926;76;21092;-84
2023/01/17 02:44:17;;;;;;;10.60;5.85;;;21.40;84.40;;;;;;1872389;75;21090;-85
2023/01/17 02:46:50;;;;;;;8.88;4.72;;;21.30;84.40;;;;;;1879431;75;21084;-83
2023/01/17 02:49:24;;;;;;;7.40;3.83;;;21.40;84.70;;;;;;1856153;76;21364;-84
2023/01/17 02:52:04;;;;;;;8.50;5.45;;;21.50;84.20;;;;;;1865285;77;21089;-82
2023/01/17 02:54:50;;;;;;;8.08;4.72;;;21.60;84.00;;;;;;1889549;75;21103;-82
2023/01/17 02:57:39;;;;;;;8.13;4.40;;;21.70;83.40;;;;;;1869255;76;21084;-81
2023/01/17 03:00:22;;;;;;;8.95;4.28;;;21.80;83.30;;;;;;1825915;77;21564;-80
2023/01/17 03:03:14;;;;;;;8.13;4.28;;;21.80;83.10;;;;;;1853855;77;21138;-81
2023/01/17 03:05:51;;;;;;;8.25;4.78;;;21.90;83.10;;;;;;1825484;77;21066;-81
2023/01/17 03:08:22;;;;;;;6.75;4.67;;;21.90;83.10;;;;;;1858838;76;21139;-84
2023/01/17 03:10:53;;;;;;;11.63;4.40;;;21.90;83.10;;;;;;1861064;76;21209;-84
2023/01/17 03:13:25;;;;;;;7.00;4.42;;;22.00;82.80;;;;;;1857515;77;21492;-84
2023/01/17 03:15:58;;;;;;;6.78;4.05;;;22.10;82.20;;;;;;1854463;76;21146;-82
2023/01/17 03:18:29;;;;;;;10.20;4.97;;;22.20;82.30;;;;;;1825194;77;21079;-82
2023/01/17 03:21:00;;;;;;;7.28;4.00;;;22.30;81.70;;;;;;1830387;77;21231;-83
2023/01/17 03:23:31;;;;;;;7.25;3.98;;;22.30;81.80;;;;;;1824878;77;21195;-83
2023/01/17 03:26:03;;;;;;;7.33;4.53;;;22.30;82.20;;;;;;1889117;76;21107;-82
2023/01/17 03:28:34;;;;;;;7.33;4.40;;;22.40;81.50;;;;;;1866222;76;21113;-83
2023/01/17 03:31:05;;;;;;;9.88;4.25;;;22.40;81.60;;;;;;1822571;79;21057;-82
2023/01/17 03:33:36;;;;;;;8.03;4.53;;;22.60;81.40;;;;;;1857082;77;21142;-83
2023/01/17 03:36:08;;;;;;;8.50;4.25;;;22.60;81.20;;;;;;1810349;79;21527;-84
2023/01/17 03:38:39;;;;;;;7.62;4.12;;;22.70;80.50;;;;;;1854255;76;21088;-81
2023/01/17 03:41:10;;;;;;;6.03;3.98;;;22.70;80.10;;;;;;1821064;77;21174;-84
2023/01/17 03:43:41;;;;;;;7.72;4.28;;;22.80;80.40;;;;;;1856233;77;21188;-82
2023/01/17 03:46:23;;;;;;;7.25;3.85;;;22.70;80.30;;;;;;1857242;77;21176;-80
2023/01/17 03:48:55;;;;;;;6.05;4.00;;;22.80;80.40;;;;;;1886497;76;21132;-83
2023/01/17 03:51:26;;;;;;;8.98;4.92;;;22.90;80.20;;;;;;1894389;74;21073;-80
2023/01/17 03:53:57;;;;;;;7.97;4.70;;;23.00;80.10;;;;;;1886795;74;21174;-80
2023/01/17 03:56:28;;;;;;;5.28;3.65;;;23.00;80.00;;;;;;1857304;76;21068;-84
2023/01/17 03:58:59;;;;;;;6.33;4.45;;;23.00;79.80;;;;;;1819820;79;21094;-80
2023/01/17 04:01:30;;;;;;;9.75;4.70;;;23.10;80.00;;;;;;1872225;76;21223;-81
2023/01/17 04:04:02;;;;;;;9.70;3.92;;;23.20;79.50;;;;;;1881735;75;21526;-85
2023/01/17 04:06:33;;;;;;;7.37;4.10;;;23.30;79.20;;;;;;1857003;77;21148;-83
2023/01/17 04:09:04;;;;;;;6.17;3.85;;;23.40;79.10;;;;;;1878438;76;21138;-84
2023/01/17 04:11:36;;;;;;;7.15;4.30;;;23.50;78.30;;;;;;1863430;76;21576;-82
2023/01/17 04:14:07;;;;;;;7.95;3.80;;;23.60;78.40;;;;;;1843470;76;21600;-84
2023/01/17 04:16:39;;;;;;;6.72;4.20;;;23.70;77.90;;;;;;1848875;77;21150;-84
2023/01/17 04:19:12;;;;;;;6.58;4.42;;;23.90;76.20;;;;;;1807131;79;21646;-83
2023/01/17 04:21:44;;;;;;;8.48;4.28;;;23.90;76.50;;;;;;1860667;77;21098;-87
2023/01/17 04:24:15;;;;;;;7.95;5.33;;;24.00;76.40;;;;;;1813081;78;21097;-82
2023/01/17 04:26:47;;;;;;;6.75;4.53;;;24.10;76.30;;;;;;1843168;76;21102;-83
2023/01/17 04:29:18;;;;;;;7.20;4.37;;;24.20;76.10;;;;;;1850291;76;21089;-85
2023/01/17 04:31:50;;;;;;;8.10;4.83;;;24.20;76.10;;;;;;1884504;76;21128;-84
2023/01/17 04:34:21;;;;;;;7.17;4.72;;;24.30;76.50;;;;;;1905793;75;21088;-83
2023/01/17 04:36:54;;;;;;;6.85;4.40;;;24.40;76.60;;;;;;1864458;76;21247;-85
2023/01/17 04:39:31;;;;;;;7.37;5.03;;;24.60;75.30;;;;;;1854542;76;21152;-83
2023/01/17 04:42:03;;;;;;;7.45;4.97;;;24.60;74.80;;;;;;1847156;78;21124;-84
2023/01/17 04:44:34;;;;;;;8.80;4.97;;;24.70;74.70;;;;;;1856138;77;21082;-83
2023/01/17 04:47:06;;;;;;;7.40;4.20;;;24.80;74.10;;;;;;1896180;76;21053;-82
2023/01/17 04:49:37;;;;;;;6.25;4.40;;;24.90;74.40;;;;;;1853003;77;21144;-85
2023/01/17 04:52:08;;;;;;;11.05;5.92;;;25.00;74.40;;;;;;1840652;78;21591;-86
2023/01/17 04:54:39;;;;;;;12.28;6.25;;;25.10;73.70;;;;;;1840810;78;21096;-83
2023/01/17 04:57:14;;;;;;;6.58;4.30;;;25.30;73.20;;;;;;1840558;78;21069;-85
2023/01/17 04:59:45;;;;;;;6.47;4.50;;;25.30;72.30;;;;;;1857097;76;21096;-84
2023/01/17 05:02:16;;;;;;;7.83;4.80;;;25.40;72.30;;;;;;1900203;74;21150;-83
2023/01/17 05:04:48;;;;;;;6.85;4.78;;;25.40;71.90;;;;;;1882996;76;21651;-82
2023/01/17 05:07:25;;;;;;;11.70;5.15;;;25.50;71.70;;;;;;1905440;75;21077;-82
2023/01/17 05:09:56;;;;;;;6.95;4.42;;;25.50;72.00;;;;;;1884500;76;21089;-82
2023/01/17 05:12:28;;;;;;;11.70;5.78;;;25.50;72.10;;;;;;1925019;74;21079;-82
2023/01/17 05:14:59;;;;;;;8.20;4.90;;;25.60;72.10;;;;;;1878724;76;21060;-82
2023/01/17 05:17:30;;;;;;;9.45;5.03;;;25.60;71.90;;;;;;1903851;74;21091;-85
2023/01/17 05:20:01;;;;;;;8.70;4.80;;;25.70;71.80;;;;;;1853717;76;21095;-83
2023/01/17 05:22:32;;;;;;;9.23;4.90;;;25.80;70.80;;;;;;1898241;75;21100;-81
2023/01/17 05:25:03;;;;;;;8.00;5.95;;;25.80;70.60;;;;;;1891634;75;21123;-83
2023/01/17 05:27:34;;;;;;;12.13;7.35;;;25.90;71.20;;;;;;1934228;74;21055;-83
2023/01/17 05:30:06;;;;;;;8.80;5.30;;;26.00;79.30;;;;;;1893866;76;21084;-83
2023/01/17 05:32:37;;;;;;;9.68;4.78;;;26.00;70.40;;;;;;1925194;73;21914;-82
2023/01/17 05:35:11;;;;;;;9.68;4.83;;;26.10;70.30;;;;;;1884549;76;21065;-81
2023/01/17 05:37:47;;;;;;;7.78;4.97;;;26.20;70.30;;;;;;1925036;74;21056;-82
2023/01/17 05:40:20;;;;;;;9.90;5.72;;;26.30;80.20;;;;;;1884951;76;21062;-81
2023/01/17 05:42:53;;;;;;;9.35;4.87;;;26.50;84.20;;;;;;1896119;74;21079;-82
2023/01/17 05:45:26;;;;;;;9.38;4.95;;;26.60;95.10;;;;;;1883168;76;21579;-82
2023/01/17 05:47:58;;;;;;;8.23;4.55;;;26.70;95.80;;;;;;1905313;74;21083;-83
2023/01/17 05:50:34;;;;;;;8.18;4.50;;;26.80;95.80;;;;;;1872178;75;21143;-84
2023/01/17 05:53:17;;;;;;;8.80;5.00;;;26.80;96.80;;;;;;1900441;74;21083;-83
2023/01/17 05:55:49;;;;;;;7.80;4.92;;;26.90;93.20;;;;;;1865248;75;21064;-83
2023/01/17 05:58:33;;;;;;;7.75;4.80;;;26.80;76.10;;;;;;1895328;76;21056;-86
2023/01/17 06:01:11;;;;;;;7.25;5.17;;;26.80;68.30;;;;;;1886586;74;21665;-84
2023/01/17 06:03:42;;;;;;;11.75;5.72;;;26.80;67.60;;;;;;1865927;77;21141;-84
2023/01/17 06:06:14;;;;;;;8.93;5.08;;;26.80;68.00;;;;;;1893213;76;21120;-83
2023/01/17 06:08:45;;;;;;;9.93;4.53;;;26.90;84.20;;;;;;1866373;76;21071;-84
2023/01/17 06:11:17;;;;;;;12.20;4.55;;;27.00;75.80;;;;;;1881090;76;21496;-83
2023/01/17 06:13:49;;;;;;;9.53;5.85;;;27.00;73.00;;;;;;1849018;77;21146;-85
2023/01/17 06:16:20;;;;;;;6.08;4.90;;;27.10;72.00;;;;;;1840668;78;21154;-84
2023/01/17 06:18:51;;;;;;;9.83;5.60;;;27.20;70.50;;;;;;1840957;77;21093;-85
2023/01/17 06:21:23;;;;;;;9.20;4.97;;;27.20;69.20;;;;;;1840599;78;21509;-83
2023/01/17 06:23:55;;;;;;;8.63;5.20;;;27.20;68.20;;;;;;1840161;78;21147;-84
2023/01/17 06:26:29;;;;;;;8.23;5.22;;;27.30;68.00;;;;;;1840752;78;21065;-85
2023/01/17 06:28:58;;;;;;;8.10;5.12;;;27.30;68.00;;;;;;1840507;78;21544;-82
2023/01/17 06:31:29;;;;;;;7.40;5.20;;;27.30;67.10;;;;;;1840225;78;21152;-85
2023/01/17 06:34:02;;;;;;;8.48;5.60;;;27.30;67.20;;;;;;1840133;78;21088;-83
2023/01/17 06:36:36;;;;;;;7.12;5.40;;;27.40;68.10;;;;;;1840256;78;21132;-84
2023/01/17 06:39:07;;;;;;;8.50;5.40;;;27.30;66.60;;;;;;1840466;78;21142;-82
2023/01/17 06:41:42;;;;;;;86.57;10.15;;;27.30;66.50;;;;;;1839991;76;21129;-85
2023/01/17 06:44:14;;;;;;;10.65;6.17;;;27.40;67.50;;;;;;1831394;78;21244;-85
2023/01/17 06:46:46;;;;;;;12.10;4.92;;;27.40;66.40;;;;;;1846000;76;21101;-84
2023/01/17 06:49:17;;;;;;;9.10;5.10;;;27.40;65.60;;;;;;1813514;79;21076;-85
2023/01/17 06:51:48;;;;;;;9.75;4.65;;;27.50;66.50;;;;;;1887532;76;21090;-83
2023/01/17 06:54:20;;;;;;;10.80;5.90;;;27.50;65.30;;;;;;1900557;75;21146;-86
2023/01/17 06:56:51;;;;;;;11.03;5.65;;;27.60;66.00;;;;;;1865940;77;21090;-84
2023/01/17 06:59:22;;;;;;;7.55;5.22;;;27.60;65.00;;;;;;1877987;76;21070;-85
2023/01/17 07:01:53;;;;;;;8.35;4.65;;;27.60;64.50;;;;;;1851343;76;21118;-84
2023/01/17 07:04:24;;;;;;;9.65;5.65;;;27.60;64.70;;;;;;1864225;77;21160;-83
2023/01/17 07:06:56;;;;;;;8.00;4.65;;;27.60;65.70;;;;;;1891782;76;21131;-82
2023/01/17 07:09:27;;;;;;;10.05;5.15;;;27.60;65.00;;;;;;1852344;76;21159;-82
2023/01/17 07:12:00;;;;;;;10.58;5.10;;;27.60;65.60;;;;;;1815643;76;21019;-81
2023/01/17 07:14:32;;;;;;;8.43;5.70;;;27.60;65.40;;;;;;1883124;75;21080;-82
2023/01/17 07:17:04;;;;;;;12.25;6.08;;;27.60;65.00;;;;;;1865759;77;21127;-83
2023/01/17 07:19:36;;;;;;;8.15;5.15;;;27.60;64.20;;;;;;1866176;77;21073;-84
2023/01/17 07:22:07;;;;;;;8.95;5.87;;;27.70;65.00;;;;;;1865968;77;21158;-83
2023/01/17 07:24:38;;;;;;;6.62;5.37;;;27.70;64.80;;;;;;1878444;76;21080;-83
2023/01/17 07:27:09;;;;;;;9.23;5.05;;;27.80;65.50;;;;;;1865869;77;21097;-82
2023/01/17 07:29:40;;;;;;;7.00;4.87;;;27.80;64.80;;;;;;1879322;76;21092;-83
2023/01/17 07:32:11;;;;;;;6.72;4.95;;;27.80;64.20;;;;;;1866755;76;21176;-83
2023/01/17 07:34:47;;;;;;;7.72;5.10;;;27.80;64.00;;;;;;1880752;75;21057;-83
2023/01/17 07:37:18;;;;;;;8.70;4.83;;;27.90;64.40;;;;;;1866677;77;21165;-84
2023/01/17 07:39:50;;;;;;;7.12;4.83;;;27.80;63.80;;;;;;1877618;75;21094;-83
2023/01/17 07:42:21;;;;;;;11.95;5.08;;;27.80;64.40;;;;;;1865858;76;21090;-83
2023/01/17 07:44:53;;;;;;;11.00;5.60;;;27.90;64.80;;;;;;1885332;76;21081;-83
2023/01/17 07:47:24;;;;;;;6.12;4.55;;;27.90;63.30;;;;;;1846553;77;21181;-84
2023/01/17 07:49:55;;;;;;;5.83;4.87;;;27.80;63.30;;;;;;1813563;78;21084;-83
2023/01/17 07:52:26;;;;;;;6.37;4.33;;;27.80;63.40;;;;;;1845408;78;21163;-83
2023/01/17 07:54:58;;;;;;;6.87;4.83;;;27.80;63.70;;;;;;1845369;78;21178;-84
2023/01/17 07:57:29;;;;;;;7.22;5.12;;;27.80;64.10;;;;;;1851728;77;21150;-83
2023/01/17 08:00:00;;;;;;;8.30;4.60;;;27.70;64.00;;;;;;1829264;77;21183;-84
2023/01/17 08:02:31;;;;;;;8.43;4.92;;;27.70;64.10;;;;;;1889658;74;21082;-84
2023/01/17 08:05:05;;;;;;;8.18;5.53;;;27.60;63.70;;;;;;1818329;78;21173;-84
2023/01/17 08:07:36;;;;;;;7.25;4.75;;;27.60;63.90;;;;;;1867821;76;21084;-83
2023/01/17 08:10:11;;;;;;;6.58;4.92;;;27.50;64.10;;;;;;1851401;76;21090;-86
2023/01/17 08:12:42;;;;;;;10.00;6.20;;;27.50;64.60;;;;;;1851195;77;21079;-86
2023/01/17 08:15:14;;;;;;;9.20;5.78;;;27.50;64.70;;;;;;1864488;76;21125;-84
2023/01/17 08:17:53;;;;;;;6.70;4.62;;;27.50;64.00;;;;;;1838499;77;21134;-85
2023/01/17 08:20:25;;;;;;;7.58;5.08;;;27.60;64.40;;;;;;1877074;76;21138;-85
2023/01/17 08:22:57;;;;;;;15.38;5.45;;;27.60;64.10;;;;;;1850265;76;21206;-85
2023/01/17 08:25:28;;;;;;;9.33;5.33;;;27.60;63.70;;;;;;1878325;75;21579;-85
2023/01/17 08:27:59;;;;;;;9.40;5.22;;;27.70;63.80;;;;;;1853858;77;21137;-89
2023/01/17 08:30:31;;;;;;;9.50;6.17;;;27.70;63.70;;;;;;1879292;76;21108;-85
2023/01/17 08:33:02;;;;;;;11.03;7.72;;;27.80;63.60;;;;;;1850636;77;21130;-84
2023/01/17 08:35:33;;;;;;;8.10;6.62;;;27.80;63.70;;;;;;1877753;76;21080;-85
2023/01/17 08:38:05;;;;;;;7.87;4.78;;;27.70;63.50;;;;;;1871319;75;21196;-84
2023/01/17 08:40:36;;;;;;;6.95;4.80;;;27.70;63.40;;;;;;1852334;77;21083;-83
2023/01/17 08:43:08;;;;;;;7.05;4.72;;;27.70;63.70;;;;;;1869140;76;21143;-84
2023/01/17 08:45:42;;;;;;;7.40;4.75;;;27.60;63.40;;;;;;1875691;76;21081;-84
2023/01/17 08:48:12;;;;;;;7.58;5.58;;;27.60;62.30;;;;;;1878232;75;21080;-85
2023/01/17 08:50:43;;;;;;;6.80;4.67;;;27.60;63.00;;;;;;1851372;77;21498;-84
2023/01/17 08:53:14;;;;;;;7.42;4.78;;;27.50;62.20;;;;;;1875865;76;21139;-84
2023/01/17 08:55:47;;;;;;;8.13;4.53;;;27.60;62.10;;;;;;1846559;77;21717;-84
2023/01/17 08:58:20;;;;;;;11.48;4.22;;;27.60;62.00;;;;;;1876054;76;21133;-83
2023/01/17 09:01:04;;;;;;;9.98;4.85;;;27.60;62.50;;;;;;1845592;77;21249;-85
2023/01/17 09:03:38;;;;;;;5.25;4.22;;;27.60;62.60;;;;;;1878491;76;21061;-83
2023/01/17 09:06:14;;;;;;;8.48;4.67;;;27.60;63.30;;;;;;1906741;75;21072;-83
2023/01/17 09:08:48;;;;;;;7.47;4.83;;;27.60;62.70;;;;;;1843036;77;21143;-83
2023/01/17 09:11:20;;;;;;;8.25;4.85;;;27.60;63.00;;;;;;1836668;78;21059;-84
2023/01/17 09:13:51;;;;;;;6.45;4.90;;;27.60;63.90;;;;;;1879808;75;21501;-84
2023/01/17 09:16:23;;;;;;;6.70;4.80;;;27.60;63.00;;;;;;1851130;77;21084;-83
2023/01/17 09:18:58;;;;;;;6.65;4.78;;;27.60;63.20;;;;;;1871880;75;21217;-83
2023/01/17 09:21:29;;;;;;;8.43;4.92;;;27.60;62.50;;;;;;1847571;77;21149;-84
2023/01/17 09:24:00;;;;;;;11.08;5.40;;;27.60;62.30;;;;;;1875216;76;21485;-84
2023/01/17 09:26:31;;;;;;;6.25;4.50;;;27.60;62.90;;;;;;1853937;76;21071;-85
2023/01/17 09:29:02;;;;;;;6.62;4.12;;;27.60;63.00;;;;;;1879637;76;21076;-84
2023/01/17 09:31:34;;;;;;;8.85;5.03;;;27.60;62.90;;;;;;1848242;77;21095;-83
2023/01/17 09:34:06;;;;;;;9.85;5.40;;;27.60;63.00;;;;;;1873609;76;21677;-85
2023/01/17 09:36:37;;;;;;;8.63;4.90;;;27.60;63.10;;;;;;1849459;76;21269;-82
2023/01/17 09:39:09;;;;;;;6.53;4.00;;;27.70;63.20;;;;;;1875128;76;21052;-83
2023/01/17 09:42:02;;;;;;;12.70;5.83;;;27.60;62.70;;;;;;1854369;77;21080;-83
2023/01/17 09:44:39;;;;;;;8.83;5.08;;;27.70;63.00;;;;;;1871455;76;21446;-83
2023/01/17 09:47:30;;;;;;;6.80;5.35;;;27.60;62.90;;;;;;1878332;75;21080;-83
2023/01/17 09:50:09;;;;;;;7.75;4.58;;;27.50;63.30;;;;;;1875670;76;21508;-84
2023/01/17 09:52:41;;;;;;;9.05;5.12;;;27.50;63.20;;;;;;1841381;76;21092;-85
2023/01/17 09:55:14;;;;;;;5.87;4.30;;;27.40;63.40;;;;;;1875076;75;21625;-83
2023/01/17 09:57:56;;;;;;;9.93;4.40;;;27.40;63.60;;;;;;1847526;77;21116;-86
2023/01/17 10:00:42;;;;;;;5.55;4.10;;;27.30;63.60;;;;;;1874406;76;21179;-85
2023/01/17 10:03:24;;;;;;;9.13;5.30;;;27.30;64.20;;;;;;1884791;75;21556;-86
2023/01/17 10:05:58;;;;;;;9.33;5.17;;;27.20;66.30;;;;;;1865451;75;21147;-85
2023/01/17 10:08:56;;;;;;;13.22;5.35;;;27.20;67.30;;;;;;1866697;76;21133;-85
2023/01/17 10:11:55;;;;;;;14.95;4.95;;;27.20;67.40;;;;;;1866625;76;21225;-84
2023/01/17 10:14:34;;;;;;;8.73;5.83;;;27.20;68.40;;;;;;1858483;76;21039;-82
2023/01/17 10:17:17;;;;;;;9.43;5.75;;;27.10;68.70;;;;;;1837715;78;21158;-83
2023/01/17 10:20:08;;;;;;;8.65;5.70;;;27.10;69.70;;;;;;1852489;77;21261;-84
2023/01/17 10:23:00;;;;;;;8.75;5.10;;;27.00;69.40;;;;;;1819039;77;21096;-83
2023/01/17 10:25:41;;;;;;;9.83;5.17;;;27.00;69.00;;;;;;1758814;80;21111;-82
2023/01/17 10:28:28;;;;;;;10.30;5.30;;;27.00;70.00;;;;;;1788540;80;21100;-82
2023/01/17 10:31:02;;;;;;;9.28;4.92;;;26.90;69.70;;;;;;1875767;75;21544;-85
2023/01/17 10:33:36;;;;;;;11.03;5.28;;;26.90;70.90;;;;;;1892950;74;21131;-83
2023/01/17 10:36:09;;;;;;;27.73;6.25;;;26.80;70.00;;;;;;1901475;74;21136;-84
2023/01/17 10:38:43;;;;;;;6.97;4.90;;;26.80;70.30;;;;;;1891084;75;21342;-83
2023/01/17 10:41:45;;;;;;;8.80;4.95;;;26.70;70.40;;;;;;1851095;77;21159;-84
2023/01/17 10:44:23;;;;;;;8.35;5.35;;;26.70;70.80;;;;;;1870732;77;21071;-83
2023/01/17 10:47:05;;;;;;;8.08;4.67;;;26.70;71.10;;;;;;1855459;77;21096;-83
2023/01/17 10:49:38;;;;;;;10.82;5.12;;;26.60;71.40;;;;;;1826487;77;21606;-82
2023/01/17 10:52:27;;;;;;;8.85;5.25;;;26.60;71.30;;;;;;1855689;77;21136;-81
2023/01/17 10:55:21;;;;;;;7.90;4.83;;;26.60;71.60;;;;;;1852457;76;21057;-84
2023/01/17 10:57:53;;;;;;;7.60;4.90;;;26.60;71.40;;;;;;1846379;77;21100;-84
2023/01/17 11:00:44;;;;;;;7.62;5.35;;;26.60;71.70;;;;;;1877502;76;21622;-82
2023/01/17 11:03:19;;;;;;;8.80;5.35;;;26.50;71.60;;;;;;1846308;77;21644;-83
2023/01/17 11:06:16;;;;;;;14.07;8.48;;;26.40;72.00;;;;;;1881086;75;21229;-83
2023/01/17 11:08:53;;;;;;;9.20;5.60;;;26.40;72.30;;;;;;1822013;77;21064;-84
2023/01/17 11:11:37;;;;;;;;;;;26.40;72.40;;;;;;1907547;75;21471;-83
2023/01/17 11:14:20;;;;;;;9.60;5.42;;;26.30;72.20;;;;;;1889467;75;20121;-83
2023/01/17 11:17:01;;;;;;;14.38;6.80;;;26.30;72.50;;;;;;1879118;75;21142;-82
2023/01/17 11:19:35;;;;;;;10.68;7.03;;;26.30;72.60;;;;;;1850776;77;21149;-85
2023/01/17 11:22:08;;;;;;;11.05;6.17;;;26.30;72.90;;;;;;1877838;76;21092;-81
2023/01/17 11:24:44;;;;;;;10.20;5.95;;;26.30;73.00;;;;;;1858390;76;21809;-84
2023/01/17 11:27:34;;;;;;;9.95;5.37;;;26.20;73.20;;;;;;1904667;75;21107;-84
2023/01/17 11:30:20;;;;;;;11.90;6.60;;;26.20;73.30;;;;;;1850664;77;21222;-86
2023/01/17 11:32:57;;;;;;;8.00;5.47;;;26.20;73.60;;;;;;1888462;75;21080;-84
2023/01/17 11:35:35;;;;;;;14.43;6.42;;;26.20;73.50;;;;;;1855379;76;21583;-84
2023/01/17 11:38:15;;;;;;;10.75;6.67;;;26.10;73.60;;;;;;1855064;77;21161;-84
2023/01/17 11:40:47;;;;;;;11.75;6.30;;;26.10;73.80;;;;;;1846163;76;21221;-84
2023/01/17 11:43:26;;;;;;;12.68;7.55;;;26.10;73.90;;;;;;1871790;75;21040;-84
2023/01/17 11:46:06;;;;;;;13.58;9.13;;;26.10;73.90;;;;;;1845518;77;21076;-84
2023/01/17 11:48:38;;;;;;;13.13;7.00;;;26.00;74.10;;;;;;1871093;76;21076;-84
2023/01/17 11:51:15;;;;;;;12.15;7.33;;;26.00;74.10;;;;;;1844272;77;21060;-83
2023/01/17 11:53:51;;;;;;;12.15;6.95;;;26.00;74.20;;;;;;1871314;76;21282;-84
2023/01/17 11:56:33;;;;;;;9.80;6.05;;;26.00;74.30;;;;;;1837678;77;21071;-84
2023/01/17 11:59:25;;;;;;;12.53;6.30;;;26.00;74.20;;;;;;1874176;76;21118;-86
2023/01/17 12:02:15;;;;;;;21.50;11.53;;;26.00;74.20;;;;;;1845228;77;21084;-84
2023/01/17 12:05:14;;;;;;;18.57;9.48;;;26.00;74.40;;;;;;1894081;74;21087;-84
2023/01/17 12:08:17;;;;;;;15.85;7.50;;;25.90;74.40;;;;;;1850411;76;21663;-86
2023/01/17 12:11:00;;;;;;;22.05;8.20;;;25.90;74.50;;;;;;1874554;76;21587;-86
2023/01/17 12:14:01;;;;;;;12.58;6.95;;;25.90;74.50;;;;;;1895265;74;21092;-85
2023/01/17 12:16:41;;;;;;;13.25;7.40;;;25.90;74.60;;;;;;1880792;76;21084;-85
2023/01/17 12:19:33;;;;;;;15.13;7.42;;;25.90;74.70;;;;;;1887631;76;21059;-85
2023/01/17 12:22:15;;;;;;;10.65;7.70;;;25.90;74.80;;;;;;1871471;76;21130;-86
2023/01/17 12:24:51;;;;;;;12.75;7.78;;;25.90;74.90;;;;;;1881570;76;21131;-86
2023/01/17 12:27:48;;;;;;;18.67;8.70;;;25.90;75.10;;;;;;1896456;74;21088;-86
2023/01/17 12:30:43;;;;;;;11.03;7.37;;;25.80;75.10;;;;;;1873678;76;21135;-85
2023/01/17 12:33:38;;;;;;;13.85;8.35;;;25.80;75.40;;;;;;1803249;78;21073;-85
2023/01/17 12:36:16;;;;;;;16.12;8.85;;;25.80;75.50;;;;;;1850680;76;21583;-85
2023/01/17 12:38:46;;;;;;;13.58;7.80;;;25.80;75.50;;;;;;1888244;76;21123;-86
2023/01/17 12:41:26;;;;;;;14.93;9.00;;;25.70;75.60;;;;;;1866600;76;21088;-85
2023/01/17 12:44:00;;;;;;;16.17;8.45;;;25.70;76.10;;;;;;1886211;75;21092;-85
2023/01/17 12:46:37;;;;;;;18.10;10.05;;;25.70;76.20;;;;;;1882301;76;21116;-85
2023/01/17 12:49:45;;;;;;;21.10;9.75;;;25.70;76.50;;;;;;1869004;76;21135;-85
2023/01/17 12:52:39;;;;;;;11.57;8.53;;;25.60;76.40;;;;;;1877653;76;21162;-85
2023/01/17 12:55:18;;;;;;;17.23;9.10;;;25.60;76.50;;;;;;1882302;75;21195;-85
2023/01/17 12:57:51;;;;;;;16.77;9.45;;;25.60;76.20;;;;;;1877787;76;21144;-85
2023/01/17 13:00:25;;;;;;;18.07;10.18;;;25.60;76.30;;;;;;1887609;75;21485;-86
2023/01/17 13:03:14;;;;;;;13.85;8.30;;;25.60;76.30;;;;;;1902120;75;21134;-84
2023/01/17 13:05:47;;;;;;;14.53;8.73;;;25.60;76.40;;;;;;1851466;76;21200;-87
2023/01/17 13:08:27;;;;;;;18.17;9.75;;;25.60;76.50;;;;;;1877701;75;21135;-85
2023/01/17 13:11:06;;;;;;;15.78;10.00;;;25.60;76.60;;;;;;1891469;75;21080;-86
2023/01/17 13:13:40;;;;;;;20.72;11.57;;;25.60;76.70;;;;;;1888571;75;21633;-84
2023/01/17 13:16:20;;;;;;;17.30;10.20;;;25.50;76.80;;;;;;1891702;75;21083;-85
2023/01/17 13:18:52;;;;;;;17.65;10.60;;;25.60;77.20;;;;;;1881689;76;21143;-86
2023/01/17 13:21:31;;;;;;;17.92;10.55;;;25.50;77.20;;;;;;1887336;75;21142;-85
2023/01/17 13:24:07;;;;;;;21.42;12.20;;;25.50;77.10;;;;;;1866824;75;21243;-85
2023/01/17 13:26:59;;;;;;;22.73;11.10;;;25.50;77.90;;;;;;1874650;76;21207;-87
2023/01/17 13:29:42;;;;;;;24.23;12.65;;;25.50;78.00;;;;;;1856880;76;21088;-84
2023/01/17 13:32:32;;;;;;;26.10;12.00;;;25.40;78.40;;;;;;1851912;76;21072;-84
2023/01/17 13:35:07;;;;;;;22.10;11.40;;;25.40;78.60;;;;;;1858038;76;21076;-85
2023/01/17 13:37:59;;;;;;;18.37;11.15;;;25.30;79.00;;;;;;1858207;76;21071;-85
2023/01/17 13:40:44;;;;;;;22.85;12.82;;;25.30;79.00;;;;;;1846853;76;21095;-85
2023/01/17 13:43:20;;;;;;;23.60;12.93;;;25.20;79.10;;;;;;1872909;74;21114;-85
2023/01/17 13:45:54;;;;;;;19.95;12.80;;;25.20;79.30;;;;;;1847303;75;21202;-86
2023/01/17 13:48:31;;;;;;;21.80;13.10;;;25.20;79.30;;;;;;1860282;75;21596;-83
2023/01/17 13:51:10;;;;;;;23.98;13.13;;;25.20;79.30;;;;;;1830649;76;21189;-86
2023/01/17 13:53:43;;;;;;;27.07;14.85;;;25.20;79.60;;;;;;1865909;76;21143;-85
2023/01/17 13:56:17;;;;;;;24.63;14.47;;;25.10;79.70;;;;;;1875849;76;21588;-84
2023/01/17 13:58:54;;;;;;;31.02;16.00;;;25.20;79.80;;;;;;1851958;76;21218;-85
2023/01/17 14:01:41;;;;;;;29.00;15.63;;;25.10;79.80;;;;;;1847444;77;21604;-84
2023/01/17 14:04:14;;;;;;;26.60;14.63;;;25.10;80.00;;;;;;1844866;76;21085;-85
2023/01/17 14:06:58;;;;;;;22.67;14.13;;;25.10;80.00;;;;;;1826887;77;21212;-87
2023/01/17 14:09:42;;;;;;;23.98;14.13;;;25.10;80.20;;;;;;1864427;76;21104;-84
2023/01/17 14:12:21;;;;;;;24.02;15.43;;;25.10;80.40;;;;;;1869166;76;21536;-84
2023/01/17 14:14:57;;;;;;;29.10;15.80;;;25.00;81.30;;;;;;1875610;76;21076;-85
2023/01/17 14:17:36;;;;;;;25.35;14.93;;;25.00;80.80;;;;;;1879968;75;21169;-85
2023/01/17 14:20:14;;;;;;;26.50;15.68;;;25.00;81.50;;;;;;1845068;76;21092;-85
2023/01/17 14:22:54;;;;;;;26.23;15.40;;;25.00;83.00;;;;;;1885698;75;21158;-86
2023/01/17 14:25:33;;;;;;;29.67;16.07;;;24.90;84.10;;;;;;1880979;75;21064;-85
2023/01/17 14:28:09;;;;;;;24.05;14.07;;;24.90;85.40;;;;;;1859828;75;21085;-85
2023/01/17 14:30:41;;;;;;;24.03;13.93;;;24.80;84.70;;;;;;1853679;76;21056;-85
2023/01/17 14:33:14;;;;;;;24.20;14.53;;;24.80;84.60;;;;;;1858506;77;21108;-85
2023/01/17 14:35:54;;;;;;;25.08;14.63;;;24.80;84.90;;;;;;1881960;75;21127;-86
2023/01/17 14:38:30;;;;;;;21.57;14.95;;;24.70;82.90;;;;;;1875906;75;21185;-85
2023/01/17 14:41:10;;;;;;;33.02;15.72;;;24.60;82.40;;;;;;1867024;75;21147;-85
2023/01/17 14:43:44;;;;;;;26.30;15.53;;;24.60;82.00;;;;;;1875724;76;21186;-85
2023/01/17 14:46:27;;;;;;;22.95;14.33;;;24.60;81.70;;;;;;1869387;76;21154;-88
2023/01/17 14:49:10;;;;;;;23.80;15.15;;;24.60;81.60;;;;;;1855292;77;21119;-85